createdAt,value
2023-03-23T16:00:14.244Z,38.22
2023-03-23T16:02:44.564Z,38.65
2023-03-23T16:05:15.266Z,36.20
2023-03-23T16:07:47.411Z,39.30
2023-03-23T16:10:20.091Z,39.30
2023-03-23T16:12:49.235Z,38.80
2023-03-23T16:15:18.588Z,37.75
2023-03-23T16:17:48.763Z,38.25
2023-03-23T16:20:20.714Z,37.55
2023-03-23T16:22:50.580Z,39.20
2023-03-23T16:25:20.232Z,37.25
2023-03-23T16:27:52.783Z,37.80
2023-03-23T16:32:54.888Z,35.47
2023-03-23T16:35:25.811Z,36.53
2023-03-23T16:38:08.277Z,37.42
2023-03-23T16:43:09.036Z,33.97
2023-03-23T16:45:43.735Z,33.70
2023-03-23T16:48:14.647Z,33.50
2023-03-23T16:50:44.257Z,32.50
2023-03-23T16:53:13.158Z,30.85
2023-03-23T16:55:43.020Z,33.05
2023-03-23T16:58:16.866Z,32.92
2023-03-23T17:03:43.887Z,30.95
2023-03-23T17:08:41.191Z,31.23
2023-03-23T17:11:11.497Z,31.00
2023-03-23T17:13:40.552Z,29.52
2023-03-23T17:16:09.917Z,32.38
2023-03-23T17:18:38.708Z,30.10
2023-03-23T17:21:07.874Z,29.65
2023-03-23T17:23:36.781Z,30.25
2023-03-23T17:26:05.625Z,30.33
2023-03-23T17:28:34.458Z,33.30
2023-03-23T17:31:03.243Z,29.15
2023-03-23T17:33:32.021Z,31.65
2023-03-23T17:36:00.790Z,29.48
2023-03-23T17:38:29.544Z,28.85
2023-03-23T17:41:00.611Z,29.52
2023-03-23T17:43:29.632Z,29.80
2023-03-23T17:45:58.461Z,29.95
2023-03-23T17:48:27.880Z,29.70
2023-03-23T17:50:59.968Z,30.77
2023-03-23T17:53:29.185Z,30.73
2023-03-23T18:03:30.908Z,32.53
2023-03-23T18:06:01.896Z,31.70
2023-03-23T18:08:31.202Z,32.42
2023-03-23T18:11:00.362Z,31.40
2023-03-23T18:13:31.095Z,31.13
2023-03-23T18:16:00.149Z,31.80
2023-03-23T18:18:29.047Z,30.80
2023-03-23T18:21:03.991Z,32.00
2023-03-23T18:23:43.093Z,32.95
2023-03-23T18:26:18.721Z,32.05
2023-03-23T18:28:47.472Z,31.95
2023-03-23T18:31:18.426Z,32.55
2023-03-23T18:33:50.364Z,31.85
2023-03-23T18:36:21.881Z,32.13
2023-03-23T18:38:51.834Z,34.25
2023-03-23T18:41:20.852Z,33.45
2023-03-23T18:43:49.654Z,33.42
2023-03-23T18:46:18.530Z,32.45
2023-03-23T18:48:47.351Z,31.83
2023-03-23T18:51:16.415Z,32.38
2023-03-23T18:53:45.210Z,32.03
2023-03-23T18:56:16.977Z,34.00
2023-03-23T18:58:46.727Z,33.20
2023-03-23T19:01:18.071Z,32.28
2023-03-23T19:03:47.385Z,31.67
2023-03-23T19:06:19.890Z,31.63
2023-03-23T19:08:49.827Z,30.45
2023-03-23T19:11:19.805Z,30.55
2023-03-23T19:14:00.615Z,30.25
2023-03-23T19:16:32.787Z,30.50
2023-03-23T19:19:03.538Z,30.88
2023-03-23T19:21:33.187Z,32.15
2023-03-23T19:24:02.892Z,29.92
2023-03-23T19:26:37.623Z,33.38
2023-03-23T19:29:26.255Z,30.02
2023-03-23T19:31:57.537Z,30.13
2023-03-23T19:34:29.087Z,37.53
2023-03-23T19:37:05.291Z,28.90
2023-03-23T19:39:36.670Z,29.20
2023-03-23T19:42:05.834Z,28.33
2023-03-23T19:44:35.658Z,28.35
2023-03-23T19:47:04.762Z,30.88
2023-03-23T19:49:33.581Z,30.52
2023-03-23T19:52:06.419Z,29.70
2023-03-23T19:54:39.827Z,30.90
2023-03-23T19:57:10.920Z,31.33
2023-03-23T19:59:40.264Z,31.50
2023-03-23T20:02:09.048Z,33.03
2023-03-23T20:04:37.914Z,31.88
2023-03-23T20:07:07.879Z,32.45
2023-03-23T20:09:38.359Z,34.05
2023-03-23T20:12:07.342Z,32.25
2023-03-23T20:14:37.496Z,33.47
2023-03-23T20:17:10.165Z,33.78
2023-03-23T20:19:40.239Z,34.03
2023-03-23T20:22:09.245Z,33.17
2023-03-23T20:24:38.355Z,34.10
2023-03-23T20:27:07.332Z,34.78
2023-03-23T20:29:36.094Z,34.58
2023-03-23T20:32:04.864Z,35.20
2023-03-23T20:34:33.678Z,35.97
2023-03-23T20:37:03.583Z,34.15
2023-03-23T20:39:34.232Z,35.50
2023-03-23T20:42:06.659Z,35.72
2023-03-23T20:44:36.429Z,36.92
2023-03-23T20:47:05.975Z,36.95
2023-03-23T20:49:38.096Z,35.97
2023-03-23T20:52:09.881Z,39.28
2023-03-23T20:54:38.949Z,36.65
2023-03-23T20:57:09.156Z,36.08
2023-03-23T20:59:38.007Z,36.25
2023-03-23T21:02:07.189Z,35.25
2023-03-23T21:04:38.254Z,36.17
2023-03-23T21:07:07.282Z,35.35
2023-03-23T21:09:38.963Z,36.13
2023-03-23T21:12:10.395Z,35.05
2023-03-23T21:14:41.081Z,34.97
2023-03-23T21:17:10.129Z,33.80
2023-03-23T21:19:39.152Z,38.78
2023-03-23T21:22:07.959Z,33.70
2023-03-23T21:24:39.524Z,39.28
2023-03-23T21:27:08.727Z,34.13
2023-03-23T21:29:37.574Z,36.30
2023-03-23T21:32:08.650Z,34.90
2023-03-23T21:34:38.702Z,36.05
2023-03-23T21:37:08.077Z,34.55
2023-03-23T21:39:36.922Z,37.90
2023-03-23T21:42:07.677Z,37.05
2023-03-23T21:44:36.908Z,36.20
2023-03-23T21:47:05.870Z,36.10
2023-03-23T21:49:34.565Z,36.20
2023-03-23T21:52:10.132Z,35.80
2023-03-23T21:54:38.854Z,34.63
2023-03-23T21:57:07.858Z,35.83
2023-03-23T21:59:39.585Z,33.72
2023-03-23T22:02:12.625Z,34.38
2023-03-23T22:10:15.462Z,32.65
2023-03-23T22:12:44.337Z,33.30
2023-03-23T22:15:16.139Z,32.30
2023-03-23T22:17:45.228Z,32.55
2023-03-23T22:20:15.155Z,34.47
2023-03-23T22:22:43.899Z,34.88
2023-03-23T22:25:12.731Z,35.15
2023-03-23T22:33:15.903Z,32.83
2023-03-23T22:35:46.095Z,36.22
2023-03-23T22:38:16.572Z,34.10
2023-03-23T22:40:45.656Z,33.53
2023-03-23T22:43:14.610Z,34.67
2023-03-23T22:45:43.372Z,35.60
2023-03-23T22:48:12.195Z,32.90
2023-03-23T22:50:41.589Z,34.55
2023-03-23T22:53:10.341Z,33.85
2023-03-23T22:55:43.912Z,36.50
2023-03-23T22:58:13.109Z,33.70
2023-03-23T23:00:45.404Z,34.78
2023-03-23T23:03:14.553Z,34.85
2023-03-23T23:06:19.658Z,35.15
2023-03-23T23:12:03.182Z,64.25
2023-03-23T23:14:31.972Z,35.35
2023-03-23T23:17:00.771Z,37.00
2023-03-23T23:19:29.563Z,40.08
2023-03-23T23:22:06.423Z,38.65
2023-03-23T23:27:27.426Z,41.08
2023-03-23T23:29:56.182Z,37.92
2023-03-23T23:32:25.715Z,43.28
2023-03-23T23:34:54.495Z,38.65
2023-03-23T23:37:23.221Z,41.38
2023-03-23T23:39:52.645Z,42.58
2023-03-23T23:42:21.514Z,65.20
2023-03-23T23:44:50.365Z,48.90
2023-03-23T23:47:19.381Z,44.33
2023-03-23T23:49:51.387Z,60.13
2023-03-23T23:52:20.215Z,47.77
2023-03-23T23:54:49.194Z,43.53
2023-03-23T23:57:17.982Z,39.65
2023-03-23T23:59:46.944Z,35.58
